TimeMST,TemperatureF,Dew PointF,Humidity,Sea Level PressureIn,VisibilityMPH,Wind Direction,Wind SpeedMPH,Gust SpeedMPH,PrecipitationIn,Events,Conditions,WindDirDegrees,DateUTC
12:51 AM,75.0,64.9,71,29.77,10.0,Calm,Calm,-,N/A,,Clear,0,2013-07-21 07:51:00
1:51 AM,75.0,63.0,66,29.75,10.0,WNW,4.6,-,N/A,,Clear,300,2013-07-21 08:51:00
2:51 AM,73.9,64.0,71,29.75,10.0,Calm,Calm,-,N/A,,Clear,0,2013-07-21 09:51:00
3:51 AM,75.0,64.9,71,29.75,10.0,Calm,Calm,-,N/A,,Clear,0,2013-07-21 10:51:00
4:51 AM,75.0,64.9,71,29.78,10.0,Calm,Calm,-,N/A,,Clear,0,2013-07-21 11:51:00
5:51 AM,75.0,64.9,71,29.80,10.0,ESE,3.5,-,N/A,,Mostly Cloudy,110,2013-07-21 12:51:00
6:51 AM,73.9,64.9,73,29.82,10.0,WSW,5.8,-,N/A,,Scattered Clouds,250,2013-07-21 13:51:00
8:51 AM,77.0,64.0,64,29.86,10.0,NW,3.5,-,N/A,,Overcast,320,2013-07-21 15:51:00
9:51 AM,79.0,64.0,60,29.86,10.0,NNW,5.8,-,N/A,,Partly Cloudy,330,2013-07-21 16:51:00
10:51 AM,84.0,64.0,51,29.84,10.0,Variable,4.6,-,N/A,,Clear,0,2013-07-21 17:51:00
11:51 AM,87.1,62.1,43,29.81,10.0,Variable,3.5,-,N/A,,Clear,0,2013-07-21 18:51:00
12:51 PM,89.1,62.1,40,29.78,10.0,NNE,4.6,-,N/A,,Partly Cloudy,30,2013-07-21 19:51:00
1:51 PM,89.1,61.0,39,29.77,10.0,Variable,3.5,-,N/A,,Clear,0,2013-07-21 20:51:00
2:51 PM,91.0,60.1,35,29.74,10.0,West,16.1,23.0,N/A,,Clear,280,2013-07-21 21:51:00
3:51 PM,84.9,57.0,38,29.76,10.0,WNW,20.7,25.3,N/A,,Clear,300,2013-07-21 22:51:00
4:51 PM,88.0,60.1,39,29.75,10.0,WNW,24.2,29.9,N/A,,Clear,300,2013-07-21 23:51:00
5:51 PM,84.9,60.1,43,29.76,10.0,WNW,19.6,-,0.00,Rain,Light Rain,300,2013-07-22 00:51:00
6:51 PM,82.0,61.0,49,29.77,10.0,WNW,17.3,-,0.00,,Scattered Clouds,290,2013-07-22 01:51:00
7:51 PM,81.0,62.1,52,29.79,10.0,WNW,13.8,-,N/A,,Clear,300,2013-07-22 02:51:00
8:51 PM,81.0,63.0,54,29.81,10.0,NW,10.4,-,N/A,,Clear,310,2013-07-22 03:51:00
9:51 PM,80.1,64.0,58,29.83,10.0,WNW,10.4,-,N/A,,Clear,300,2013-07-22 04:51:00
10:51 PM,79.0,63.0,58,29.83,10.0,WNW,9.2,-,N/A,,Clear,290,2013-07-22 05:51:00
11:51 PM,79.0,64.0,60,29.83,10.0,WNW,9.2,-,N/A,,Clear,300,2013-07-22 06:51:00